createdAt,value
2022-12-04T00:01:10.769Z,81.70
2022-12-04T00:03:39.114Z,81.69
2022-12-04T00:06:17.657Z,81.30
2022-12-04T00:08:45.310Z,81.78
2022-12-04T00:11:13.519Z,81.65
2022-12-04T00:13:40.743Z,81.20
2022-12-04T00:16:09.360Z,81.85
2022-12-04T00:18:36.584Z,81.39
2022-12-04T00:21:05.787Z,81.06
2022-12-04T00:23:33.249Z,81.52
2022-12-04T00:26:05.898Z,81.32
2022-12-04T00:28:33.294Z,80.99
2022-12-04T00:31:00.655Z,80.91
2022-12-04T00:33:27.651Z,81.46
2022-12-04T00:36:01.572Z,81.44
2022-12-04T00:38:28.639Z,81.31
2022-12-04T00:40:56.075Z,81.03
2022-12-04T00:43:23.554Z,81.00
2022-12-04T00:45:51.096Z,80.80
2022-12-04T00:48:18.090Z,80.71
2022-12-04T00:50:45.103Z,80.56
2022-12-04T00:53:13.177Z,80.92
2022-12-04T00:55:41.543Z,81.14
2022-12-04T00:58:08.949Z,81.04
2022-12-04T01:00:41.698Z,80.82
2022-12-04T01:03:09.264Z,81.39
2022-12-04T01:05:44.889Z,81.15
2022-12-04T01:08:13.294Z,81.16
2022-12-04T01:10:41.516Z,81.09
2022-12-04T01:13:09.203Z,81.46
2022-12-04T01:15:40.411Z,81.63
2022-12-04T01:18:07.427Z,81.08
2022-12-04T01:20:34.372Z,80.99
2022-12-04T01:23:01.555Z,80.98
2022-12-04T01:25:28.736Z,81.32
2022-12-04T01:27:55.682Z,82.00
2022-12-04T01:30:22.789Z,81.43
2022-12-04T01:32:49.695Z,81.14
2022-12-04T01:35:16.671Z,80.81
2022-12-04T01:37:43.648Z,81.46
2022-12-04T01:40:14.906Z,82.17
2022-12-04T01:42:41.863Z,82.01
2022-12-04T01:45:41.668Z,82.32
2022-12-04T01:48:26.853Z,82.04
2022-12-04T01:50:56.909Z,82.04
2022-12-04T01:53:23.976Z,82.05
2022-12-04T01:55:51.110Z,81.84
2022-12-04T01:58:20.546Z,81.78
2022-12-04T02:00:51.722Z,81.29
2022-12-04T02:03:18.950Z,81.15
2022-12-04T02:05:45.834Z,81.03
2022-12-04T02:08:13.033Z,81.37
2022-12-04T02:10:51.706Z,81.30
2022-12-04T02:13:27.715Z,80.66
2022-12-04T02:16:02.129Z,81.45
2022-12-04T02:18:31.980Z,81.21
2022-12-04T02:21:14.042Z,81.03
2022-12-04T02:23:46.883Z,81.24
2022-12-04T02:26:31.712Z,80.96
2022-12-04T02:29:20.089Z,81.05
2022-12-04T02:32:05.264Z,80.60
2022-12-04T02:34:44.149Z,81.52
2022-12-04T02:37:26.227Z,81.01
2022-12-04T02:40:25.670Z,81.07
2022-12-04T02:43:01.770Z,80.71
2022-12-04T02:45:33.023Z,80.77
2022-12-04T02:48:02.935Z,80.58
2022-12-04T02:50:31.193Z,80.61
2022-12-04T02:53:20.333Z,80.29
2022-12-04T02:55:59.910Z,80.48
2022-12-04T02:58:32.443Z,80.73
2022-12-04T03:01:01.981Z,80.51
2022-12-04T03:03:30.933Z,80.88
2022-12-04T03:06:11.001Z,80.56
2022-12-04T03:08:42.512Z,80.84
2022-12-04T03:11:09.581Z,80.58
2022-12-04T03:13:50.156Z,80.50
2022-12-04T03:16:23.825Z,80.98
2022-12-04T03:19:00.705Z,80.68
2022-12-04T03:21:31.040Z,80.53
2022-12-04T03:24:04.623Z,81.39
2022-12-04T03:26:40.854Z,81.12
2022-12-04T03:29:23.601Z,81.09
2022-12-04T03:31:58.838Z,81.44
2022-12-04T03:34:30.883Z,81.54
2022-12-04T03:37:01.699Z,81.72
2022-12-04T03:39:38.514Z,81.81
2022-12-04T03:42:10.152Z,82.13
2022-12-04T03:45:09.754Z,82.47
2022-12-04T03:47:50.895Z,81.89
2022-12-04T03:50:38.859Z,82.63
2022-12-04T03:53:12.433Z,82.95
2022-12-04T03:55:47.697Z,81.91
2022-12-04T03:58:18.722Z,81.85
2022-12-04T04:00:46.593Z,81.12
2022-12-04T04:03:15.334Z,82.25
2022-12-04T04:05:46.880Z,81.95
2022-12-04T04:08:26.775Z,81.94
2022-12-04T04:11:15.064Z,82.40
2022-12-04T04:14:40.861Z,81.82
2022-12-04T04:17:31.268Z,81.34
2022-12-04T04:20:27.693Z,81.33
2022-12-04T04:23:15.502Z,81.13
2022-12-04T04:25:44.001Z,81.78
2022-12-04T04:28:39.632Z,81.80
2022-12-04T04:31:36.630Z,80.94
2022-12-04T04:34:12.635Z,82.02
2022-12-04T04:37:09.764Z,81.57
2022-12-04T04:39:45.879Z,82.93
2022-12-04T04:42:15.923Z,83.24
2022-12-04T04:45:04.525Z,82.69
2022-12-04T04:47:43.584Z,82.09
2022-12-04T04:50:12.032Z,82.26
2022-12-04T04:52:41.824Z,81.83
2022-12-04T04:55:09.448Z,81.43
2022-12-04T04:57:37.091Z,81.24
2022-12-04T05:00:16.172Z,81.03
2022-12-04T05:02:43.862Z,80.70
2022-12-04T05:05:12.094Z,80.56
2022-12-04T05:07:39.134Z,80.70
2022-12-04T05:10:07.189Z,80.67
2022-12-04T05:12:34.322Z,80.57
2022-12-04T05:15:01.471Z,80.17
2022-12-04T05:17:28.467Z,79.99
2022-12-04T05:19:57.035Z,80.40
2022-12-04T05:22:26.215Z,80.28
2022-12-04T05:24:53.990Z,80.98
2022-12-04T05:27:22.128Z,80.60
2022-12-04T05:29:49.109Z,80.35
2022-12-04T05:32:16.147Z,80.15
2022-12-04T05:34:43.093Z,80.43
2022-12-04T05:37:10.021Z,80.91
2022-12-04T05:39:36.991Z,80.83
2022-12-04T05:42:03.965Z,80.55
2022-12-04T05:44:30.825Z,80.21
2022-12-04T05:46:57.732Z,80.03
2022-12-04T05:49:24.850Z,80.66
2022-12-04T05:51:52.043Z,80.44
2022-12-04T05:54:19.540Z,80.54
2022-12-04T05:56:46.796Z,79.99
2022-12-04T05:59:14.493Z,80.01
2022-12-04T06:01:41.931Z,80.18
2022-12-04T06:04:09.723Z,80.26
2022-12-04T06:06:37.277Z,80.72
2022-12-04T06:09:07.469Z,80.58
2022-12-04T06:11:37.245Z,80.35
2022-12-04T06:14:06.608Z,80.17
2022-12-04T06:16:39.478Z,79.78
2022-12-04T06:19:09.555Z,80.04
2022-12-04T06:21:38.788Z,79.61
2022-12-04T06:24:06.286Z,79.86
2022-12-04T06:26:33.257Z,80.16
2022-12-04T06:29:00.742Z,79.76
2022-12-04T06:31:28.995Z,79.97
2022-12-04T06:33:57.326Z,80.24
2022-12-04T06:36:24.677Z,80.05
2022-12-04T06:38:53.032Z,80.32
2022-12-04T06:41:21.379Z,79.89
2022-12-04T06:43:49.227Z,79.81
2022-12-04T06:46:19.505Z,79.82
2022-12-04T06:48:46.983Z,79.82
2022-12-04T06:51:17.331Z,79.88
2022-12-04T06:53:44.449Z,80.20
2022-12-04T06:56:14.727Z,80.99
2022-12-04T06:58:41.666Z,79.92
2022-12-04T07:01:10.941Z,80.49
2022-12-04T07:03:38.649Z,80.32
2022-12-04T07:06:15.695Z,80.51
2022-12-04T07:08:43.833Z,80.10
2022-12-04T07:11:11.794Z,79.90
2022-12-04T07:13:38.885Z,79.64
2022-12-04T07:16:07.549Z,79.46
2022-12-04T07:18:35.810Z,79.86
2022-12-04T07:21:07.886Z,79.72
2022-12-04T07:23:35.768Z,79.38
2022-12-04T07:26:07.978Z,79.67
2022-12-04T07:28:36.369Z,79.03
2022-12-04T07:31:12.274Z,79.50
2022-12-04T07:33:39.621Z,79.49
2022-12-04T07:36:08.483Z,79.39
2022-12-04T07:38:36.086Z,79.26
2022-12-04T07:41:04.936Z,79.32
2022-12-04T07:43:32.187Z,78.63
2022-12-04T07:46:00.195Z,79.57
2022-12-04T07:48:33.036Z,79.45
2022-12-04T07:51:11.221Z,79.51
2022-12-04T07:53:38.791Z,79.62
2022-12-04T07:56:06.400Z,79.30
2022-12-04T07:58:33.960Z,80.29
2022-12-04T08:01:11.357Z,79.79
2022-12-04T08:03:45.268Z,79.51
2022-12-04T08:06:15.168Z,79.26
2022-12-04T08:08:42.149Z,78.81
2022-12-04T08:11:12.091Z,79.15
2022-12-04T08:13:39.182Z,79.40
2022-12-04T08:16:07.650Z,79.69
2022-12-04T08:18:34.889Z,79.76
2022-12-04T08:21:13.204Z,79.72
2022-12-04T08:23:41.680Z,79.25
2022-12-04T08:26:09.266Z,79.36
2022-12-04T08:28:36.802Z,79.00
2022-12-04T08:31:18.875Z,79.53
2022-12-04T08:33:46.873Z,79.40
2022-12-04T08:36:16.493Z,79.38
2022-12-04T08:38:43.864Z,79.51
2022-12-04T08:41:13.596Z,79.36
2022-12-04T08:43:41.220Z,79.01
2022-12-04T08:46:11.168Z,78.77
2022-12-04T08:48:38.521Z,79.08
2022-12-04T08:51:08.028Z,78.72
2022-12-04T08:53:36.822Z,78.56
2022-12-04T08:56:04.964Z,78.05
2022-12-04T08:58:32.037Z,78.51
2022-12-04T09:01:07.741Z,78.93
2022-12-04T09:03:35.458Z,79.39
2022-12-04T09:06:03.322Z,78.94
2022-12-04T09:08:30.659Z,78.35
2022-12-04T09:11:04.851Z,78.03
2022-12-04T09:13:31.945Z,77.53
2022-12-04T09:15:59.247Z,77.60
2022-12-04T09:18:26.346Z,77.76
2022-12-04T09:20:58.038Z,77.63
2022-12-04T09:23:26.226Z,78.33
2022-12-04T09:25:53.440Z,78.29
2022-12-04T09:28:20.644Z,78.18
2022-12-04T09:30:57.709Z,78.25
2022-12-04T09:33:24.749Z,78.00
2022-12-04T09:35:51.683Z,77.92
2022-12-04T09:38:18.676Z,77.66
2022-12-04T09:40:57.980Z,78.04
2022-12-04T09:43:39.131Z,77.30
2022-12-04T09:46:12.558Z,77.86
2022-12-04T09:48:41.997Z,77.75
2022-12-04T09:51:18.793Z,77.91
2022-12-04T09:53:49.729Z,78.06
2022-12-04T09:56:20.165Z,78.61
2022-12-04T09:59:03.294Z,78.83
2022-12-04T10:01:47.374Z,78.69
2022-12-04T10:04:15.602Z,77.80
2022-12-04T10:07:13.661Z,78.10
2022-12-04T10:09:49.708Z,77.78
2022-12-04T10:12:35.135Z,77.50
2022-12-04T10:15:14.297Z,77.73
2022-12-04T10:17:58.483Z,77.76
2022-12-04T10:20:56.237Z,78.47
2022-12-04T10:23:42.820Z,77.69
2022-12-04T10:26:17.886Z,77.45
2022-12-04T10:28:55.610Z,77.41
2022-12-04T10:31:24.012Z,77.24
2022-12-04T10:33:54.219Z,77.30
2022-12-04T10:36:25.743Z,78.00
2022-12-04T10:39:01.903Z,77.84
2022-12-04T10:41:34.305Z,78.33
2022-12-04T10:44:01.321Z,77.90
2022-12-04T10:46:33.677Z,77.46
2022-12-04T10:49:24.924Z,77.31
2022-12-04T10:51:51.888Z,77.09
2022-12-04T10:54:21.899Z,77.47
2022-12-04T10:57:09.769Z,77.16
2022-12-04T10:59:50.564Z,77.03
2022-12-04T11:02:20.544Z,77.42
2022-12-04T11:05:01.787Z,76.95
2022-12-04T11:07:30.885Z,76.45
2022-12-04T11:10:00.545Z,76.80
2022-12-04T11:12:27.530Z,77.00
2022-12-04T11:15:06.880Z,77.06
2022-12-04T11:17:34.089Z,77.12
2022-12-04T11:20:07.019Z,76.84
2022-12-04T11:22:54.280Z,77.91
2022-12-04T11:25:22.565Z,76.67
2022-12-04T11:27:52.426Z,76.68
2022-12-04T11:30:34.814Z,76.71
2022-12-04T11:33:02.497Z,77.22
2022-12-04T11:35:30.243Z,76.82
2022-12-04T11:38:17.898Z,77.69
2022-12-04T11:40:53.195Z,77.75
2022-12-04T11:43:21.106Z,77.46
2022-12-04T11:46:00.246Z,77.90
2022-12-04T11:48:27.692Z,77.53
2022-12-04T11:51:08.669Z,77.79
2022-12-04T11:53:50.026Z,77.50
2022-12-04T11:56:36.110Z,77.52
2022-12-04T11:59:49.494Z,77.62
2022-12-04T12:02:45.599Z,77.62
2022-12-04T12:05:45.078Z,77.42
2022-12-04T12:08:27.238Z,77.42
2022-12-04T12:11:03.158Z,77.38
2022-12-04T12:13:48.358Z,77.28
2022-12-04T12:16:18.040Z,77.67
2022-12-04T12:18:51.110Z,77.45
2022-12-04T12:21:36.670Z,77.46
2022-12-04T12:24:27.254Z,77.34
2022-12-04T12:27:40.425Z,77.38
2022-12-04T12:30:12.916Z,77.97
2022-12-04T12:32:49.215Z,78.09
2022-12-04T12:35:27.523Z,77.91
2022-12-04T12:37:58.451Z,77.49
2022-12-04T12:40:39.131Z,77.88
2022-12-04T12:43:16.955Z,77.87
2022-12-04T12:45:50.132Z,78.21
2022-12-04T12:48:29.223Z,77.76
2022-12-04T12:51:28.960Z,77.76
2022-12-04T12:53:59.099Z,77.71
2022-12-04T12:56:38.675Z,77.47
2022-12-04T12:59:10.098Z,77.39
2022-12-04T13:01:40.397Z,77.36
2022-12-04T13:04:15.109Z,77.15
2022-12-04T13:06:44.117Z,77.04
2022-12-04T13:09:30.321Z,77.85
2022-12-04T13:12:04.877Z,77.45
2022-12-04T13:14:31.790Z,77.04
2022-12-04T13:17:06.296Z,76.83
2022-12-04T13:19:41.977Z,77.08
2022-12-04T13:22:08.755Z,76.85
2022-12-04T13:25:05.130Z,76.92
2022-12-04T13:28:03.452Z,76.93
2022-12-04T13:30:33.364Z,76.90
2022-12-04T13:33:37.588Z,76.94
2022-12-04T13:36:49.512Z,77.44
2022-12-04T13:39:19.942Z,77.82
2022-12-04T13:41:47.109Z,77.69
2022-12-04T13:44:20.773Z,77.80
2022-12-04T13:46:56.834Z,78.04
2022-12-04T13:49:27.351Z,78.25
2022-12-04T13:51:55.730Z,78.40
2022-12-04T13:54:24.139Z,78.51
2022-12-04T13:56:54.158Z,100.00
